Time;durP1;ratioP1;P1;durP2;ratioP2;P2;SDS_P1;SDS_P2;PMS_P1;PMS_P2;Temp;Humidity;BMP_temperature;BMP_pressure;BME280_temperature;BME280_humidity;BME280_pressure;Samples;Min_cycle;Max_cycle;Signal;HPM_P1;HPM_P2
2022/03/26 00:00:45;;;;;;;13.15;2.65;;;;;;;5.72;100.00;101586.00;7397179;19;20082;-55
2022/03/26 00:03:16;;;;;;;23.30;3.53;;;;;;;5.70;100.00;101588.38;7396422;19;20321;-54
2022/03/26 00:05:43;;;;;;;18.85;4.70;;;;;;;5.68;100.00;101587.22;7395537;19;20022;-54
2022/03/26 00:08:10;;;;;;;24.10;4.32;;;;;;;5.61;100.00;101588.03;7393570;19;20015;-54
2022/03/26 00:10:36;;;;;;;18.70;4.00;;;;;;;5.61;100.00;101596.31;7396210;19;20070;-54
2022/03/26 00:13:04;;;;;;;5.80;4.28;;;;;;;5.54;100.00;101598.31;7394595;19;20674;-54
2022/03/26 00:15:30;;;;;;;17.60;2.80;;;;;;;5.50;100.00;101598.31;7392874;19;20015;-54
2022/03/26 00:17:56;;;;;;;7.38;3.38;;;;;;;5.47;100.00;101601.88;7393929;19;20018;-54
2022/03/26 00:20:22;;;;;;;11.63;3.00;;;;;;;5.42;100.00;101607.81;7395649;19;20022;-55
2022/03/26 00:22:49;;;;;;;9.85;3.88;;;;;;;5.37;100.00;101599.94;7393072;19;20028;-55
2022/03/26 00:25:17;;;;;;;11.15;4.65;;;;;;;5.40;100.00;101596.38;7394343;19;20011;-54
2022/03/26 00:27:44;;;;;;;4.78;3.15;;;;;;;5.39;100.00;101598.34;7392697;19;20014;-54
2022/03/26 00:30:11;;;;;;;2.47;2.28;;;;;;;5.42;100.00;101596.75;7394902;19;20025;-54
2022/03/26 00:32:38;;;;;;;6.88;2.50;;;;;;;5.41;100.00;101600.72;7393343;19;20036;-54
2022/03/26 00:35:09;;;;;;;4.85;3.53;;;;;;;5.37;100.00;101602.69;7393782;19;20010;-54
2022/03/26 00:37:37;;;;;;;7.22;2.72;;;;;;;5.28;100.00;101591.28;7392589;19;20011;-54
2022/03/26 00:40:05;;;;;;;17.27;2.80;;;;;;;5.23;100.00;101594.44;7393800;19;20039;-54
2022/03/26 00:42:31;;;;;;;8.48;3.67;;;;;;;5.17;100.00;101590.50;7400122;19;20036;-54
2022/03/26 00:44:58;;;;;;;2.15;2.05;;;;;;;5.12;100.00;101596.41;7394313;19;20346;-54
2022/03/26 00:47:24;;;;;;;7.47;3.17;;;;;;;5.05;100.00;101601.94;7391265;19;20365;-55
2022/03/26 00:49:51;;;;;;;6.45;2.60;;;;;;;4.95;100.00;101598.00;7393744;19;20011;-55
2022/03/26 00:52:18;;;;;;;3.90;3.35;;;;;;;4.93;100.00;101591.28;7397283;19;20030;-54
2022/03/26 00:54:44;;;;;;;18.30;2.60;;;;;;;4.95;100.00;101600.75;7392492;19;20007;-56
2022/03/26 00:57:11;;;;;;;5.22;3.25;;;;;;;4.93;100.00;101600.38;7391821;19;20010;-56
2022/03/26 01:03:12;;;;;;;;;;;;;;;;;;;;;
2022/03/26 01:06:37;;;;;;;;;;;;;;;;;;;;;
2022/03/26 01:09:05;;;;;;;2.90;2.60;;;;;;;4.89;100.00;101598.78;7393138;19;20042;-55
2022/03/26 01:11:42;;;;;;;10.45;2.70;;;;;;;4.81;100.00;101599.97;7394474;19;20034;-57
2022/03/26 01:14:22;;;;;;;;;;;;;;;;;;;;;
2022/03/26 01:20:39;;;;;;;10.75;3.92;;;;;;;4.83;100.00;101603.13;7387433;19;20015;-55
2022/03/26 01:23:24;;;;;;;;;;;;;;;;;;;;;
2022/03/26 01:26:11;;;;;;;9.57;3.03;;;;;;;4.83;100.00;101603.91;7388736;19;20036;-55
2022/03/26 01:28:37;;;;;;;8.57;3.25;;;;;;;4.83;100.00;101609.41;7392964;19;20010;-55
2022/03/26 01:31:03;;;;;;;4.45;2.80;;;;;;;4.79;100.00;101594.03;7393472;19;20018;-56
2022/03/26 01:33:30;;;;;;;14.85;4.50;;;;;;;4.79;100.00;101596.81;7393158;19;20021;-55
2022/03/26 01:35:56;;;;;;;6.20;3.20;;;;;;;4.74;100.00;101589.72;7396620;19;20517;-55
2022/03/26 01:38:22;;;;;;;3.17;2.70;;;;;;;4.71;100.00;101584.19;7401273;19;20010;-55
2022/03/26 01:40:49;;;;;;;11.93;4.43;;;;;;;4.74;100.00;101586.97;7401523;19;20474;-55
2022/03/26 01:43:15;;;;;;;10.00;4.38;;;;;;;4.77;100.00;101588.13;7399250;19;20018;-55
2022/03/26 01:45:42;;;;;;;8.25;4.00;;;;;;;4.77;100.00;101586.16;7399868;19;20027;-56
2022/03/26 01:48:08;;;;;;;2.67;2.53;;;;;;;4.78;100.00;101585.00;7398208;19;20463;-55
2022/03/26 01:50:34;;;;;;;8.50;3.13;;;;;;;4.77;100.00;101588.13;7399961;19;20014;-55
2022/03/26 01:53:02;;;;;;;5.45;3.13;;;;;;;4.77;100.00;101588.13;7400365;19;20014;-55
2022/03/26 01:55:29;;;;;;;3.88;2.65;;;;;;;4.68;100.00;101583.00;7400403;19;20010;-55
2022/03/26 01:57:55;;;;;;;9.68;3.22;;;;;;;4.63;100.00;101586.16;7400944;19;20018;-55
2022/03/26 02:00:22;;;;;;;7.70;2.63;;;;;;;4.60;100.00;101579.47;7400733;19;20014;-55
2022/03/26 02:02:48;;;;;;;2.88;2.03;;;;;;;4.60;100.00;101573.94;7400518;19;20011;-55
2022/03/26 02:05:17;;;;;;;18.25;3.17;;;;;;;4.60;100.00;101573.94;7400103;19;20006;-55
2022/03/26 02:07:45;;;;;;;25.95;5.35;;;;;;;4.60;100.00;101584.97;7398177;19;20078;-55
2022/03/26 02:10:14;;;;;;;7.03;4.65;;;;;;;4.58;100.00;101592.88;7398667;19;20007;-56
2022/03/26 02:12:41;;;;;;;15.80;5.28;;;;;;;4.50;100.00;101588.50;7399656;19;20356;-55
2022/03/26 02:15:08;;;;;;;4.68;4.22;;;;;;;4.43;100.00;101585.75;7399905;19;20018;-55
2022/03/26 02:17:36;;;;;;;8.90;4.80;;;;;;;4.38;100.00;101588.88;7400089;19;20014;-55
2022/03/26 02:20:06;;;;;;;4.63;2.70;;;;;;;4.29;100.00;101591.22;7399843;19;20393;-55
2022/03/26 02:22:32;;;;;;;15.95;3.20;;;;;;;4.37;100.00;101584.56;7403914;19;20010;-55
2022/03/26 02:24:59;;;;;;;6.15;3.70;;;;;;;4.38;100.00;101580.59;7398973;19;20031;-55
2022/03/26 02:27:27;;;;;;;4.22;3.25;;;;;;;4.39;100.00;101584.97;7397315;19;20484;-55
2022/03/26 02:29:53;;;;;;;6.20;2.95;;;;;;;4.44;100.00;101586.53;7400450;19;20023;-56
2022/03/26 02:32:21;;;;;;;6.10;3.30;;;;;;;4.46;100.00;101587.69;7403040;19;20070;-55
2022/03/26 02:34:48;;;;;;;3.53;2.65;;;;;;;4.45;100.00;101588.09;7397637;19;20459;-55
2022/03/26 02:37:16;;;;;;;2.47;2.20;;;;;;;4.50;100.00;101582.22;7398251;19;20003;-55
2022/03/26 02:39:43;;;;;;;12.70;4.63;;;;;;;4.50;100.00;101582.22;7398257;19;20498;-55
2022/03/26 02:42:09;;;;;;;14.77;4.22;;;;;;;4.52;100.00;101577.88;7403510;19;20463;-55
2022/03/26 02:44:36;;;;;;;13.18;5.15;;;;;;;4.48;100.00;101577.06;7398428;19;20035;-55
2022/03/26 02:47:02;;;;;;;4.97;2.95;;;;;;;4.48;100.00;101581.81;7393632;19;20034;-55
2022/03/26 02:49:28;;;;;;;9.90;3.80;;;;;;;4.43;100.00;101583.00;7402888;19;20014;-55
2022/03/26 02:51:54;;;;;;;4.32;3.03;;;;;;;4.43;100.00;101574.72;7399711;19;20011;-55
2022/03/26 02:54:20;;;;;;;9.15;2.85;;;;;;;4.42;100.00;101584.16;7397285;19;20010;-55
2022/03/26 02:56:51;;;;;;;12.65;4.72;;;;;;;4.40;100.00;101574.69;7398302;19;20348;-55
2022/03/26 02:59:18;;;;;;;5.97;2.67;;;;;;;4.37;100.00;101570.78;7397705;19;20014;-55
2022/03/26 03:01:45;;;;;;;4.78;3.17;;;;;;;4.36;100.00;101571.13;7401336;19;20351;-55
2022/03/26 03:04:11;;;;;;;6.03;3.13;;;;;;;4.33;100.00;101567.19;7396703;19;20011;-55
2022/03/26 03:06:38;;;;;;;9.95;3.70;;;;;;;4.28;100.00;101573.13;7396229;19;20007;-55
2022/03/26 03:09:07;;;;;;;8.52;3.92;;;;;;;4.22;100.00;101573.88;7397744;19;20024;-55
2022/03/26 03:11:35;;;;;;;3.20;1.92;;;;;;;4.27;100.00;101565.22;7400352;19;20029;-55
2022/03/26 03:14:03;;;;;;;14.98;3.40;;;;;;;4.21;100.00;101570.34;7397330;19;20018;-55
2022/03/26 03:16:30;;;;;;;4.55;2.58;;;;;;;4.22;100.00;101569.13;7397748;19;20074;-56
2022/03/26 03:18:56;;;;;;;4.72;3.03;;;;;;;4.21;100.00;101567.56;7397216;19;20026;-55
2022/03/26 03:21:23;;;;;;;3.83;2.50;;;;;;;4.22;100.00;101569.13;7397847;19;20011;-55
2022/03/26 03:23:49;;;;;;;6.13;3.85;;;;;;;4.21;100.00;101567.56;7394759;19;20014;-55
2022/03/26 03:26:15;;;;;;;19.27;3.55;;;;;;;4.21;100.00;101577.81;7394932;19;20010;-55
2022/03/26 03:28:42;;;;;;;4.28;3.25;;;;;;;4.17;100.00;101572.28;7396078;19;20011;-55
2022/03/26 03:31:09;;;;;;;3.15;2.10;;;;;;;4.17;100.00;101575.06;7398511;19;20014;-55
2022/03/26 03:33:35;;;;;;;20.77;3.63;;;;;;;4.17;100.00;101563.22;7396407;19;20066;-55
2022/03/26 03:36:02;;;;;;;10.82;3.90;;;;;;;4.16;100.00;101567.19;7396774;19;20011;-55
2022/03/26 03:38:28;;;;;;;7.57;2.55;;;;;;;4.12;100.00;101575.41;7396887;19;20459;-55
2022/03/26 03:40:55;;;;;;;3.65;2.58;;;;;;;4.09;100.00;101570.72;7398117;19;20021;-55
2022/03/26 03:43:22;;;;;;;3.25;2.92;;;;;;;4.06;100.00;101570.69;7394583;19;20011;-55
2022/03/26 03:45:49;;;;;;;16.15;4.30;;;;;;;4.01;100.00;101574.59;7394437;19;20019;-55
2022/03/26 03:48:16;;;;;;;1.95;1.77;;;;;;;3.96;100.00;101577.75;7392321;19;20040;-55
2022/03/26 03:50:43;;;;;;;7.68;2.22;;;;;;;3.93;100.00;101581.28;7395568;19;20419;-55
2022/03/26 03:53:09;;;;;;;2.05;1.95;;;;;;;3.92;100.00;101581.66;7394322;19;20024;-55
2022/03/26 03:55:35;;;;;;;2.22;2.13;;;;;;;3.90;100.00;101581.28;7395719;19;20074;-55
2022/03/26 03:58:01;;;;;;;3.08;2.80;;;;;;;3.89;100.00;101582.44;7396250;19;20010;-55
2022/03/26 04:00:27;;;;;;;7.43;3.17;;;;;;;3.86;100.00;101592.25;7396643;19;20034;-55
2022/03/26 04:02:54;;;;;;;5.68;3.63;;;;;;;3.83;100.00;101593.06;7394758;19;20034;-55
2022/03/26 04:05:21;;;;;;;3.97;2.63;;;;;;;3.86;100.00;101589.50;7397341;19;20368;-55
2022/03/26 04:07:47;;;;;;;3.35;2.72;;;;;;;3.94;100.00;101582.88;7394201;19;20015;-55
2022/03/26 04:10:13;;;;;;;3.10;2.88;;;;;;;3.91;100.00;101586.38;7395208;19;20007;-55
2022/03/26 04:12:42;;;;;;;10.10;3.00;;;;;;;3.92;100.00;101590.69;7395797;19;20021;-55
2022/03/26 04:15:09;;;;;;;4.78;2.92;;;;;;;3.97;100.00;101593.09;7395831;19;20018;-56
2022/03/26 04:17:36;;;;;;;18.67;5.20;;;;;;;3.95;100.00;101594.66;7396142;19;20019;-55
2022/03/26 04:20:06;;;;;;;10.85;3.85;;;;;;;3.91;100.00;101600.16;7394313;19;20014;-56
2022/03/26 04:22:32;;;;;;;3.95;3.25;;;;;;;3.90;100.00;101595.81;7399663;19;20013;-55
2022/03/26 04:24:58;;;;;;;7.72;3.38;;;;;;;3.88;100.00;101592.66;7394951;19;20018;-55
2022/03/26 04:27:24;;;;;;;9.15;3.47;;;;;;;3.85;100.00;101594.22;7392366;19;20458;-55
2022/03/26 04:29:50;;;;;;;2.47;2.35;;;;;;;3.79;100.00;101601.28;7394886;19;20014;-55
2022/03/26 04:32:17;;;;;;;3.03;1.83;;;;;;;3.78;100.00;101601.69;7399168;19;20014;-55
2022/03/26 04:34:43;;;;;;;3.80;2.67;;;;;;;3.74;100.00;101601.69;7395412;19;20100;-56
2022/03/26 04:37:09;;;;;;;5.40;3.13;;;;;;;3.78;100.00;101599.72;7393812;19;20011;-55
2022/03/26 04:39:36;;;;;;;2.05;1.95;;;;;;;3.77;100.00;101597.34;7395326;19;20026;-55
2022/03/26 04:42:03;;;;;;;4.43;2.15;;;;;;;3.72;100.00;101595.75;7397980;19;20011;-55
2022/03/26 04:44:29;;;;;;;7.75;2.22;;;;;;;3.75;100.00;101594.19;7393887;19;20018;-55
2022/03/26 04:46:55;;;;;;;4.90;3.58;;;;;;;3.85;100.00;101598.97;7393702;19;20014;-56
2022/03/26 04:49:21;;;;;;;5.90;3.78;;;;;;;3.84;100.00;101602.88;7394686;19;20015;-55
2022/03/26 04:51:48;;;;;;;2.28;2.03;;;;;;;3.85;100.00;101599.72;7396663;19;20031;-55
2022/03/26 04:54:14;;;;;;;13.43;3.25;;;;;;;3.84;100.00;101589.09;7393582;19;20026;-55
2022/03/26 04:56:40;;;;;;;6.93;5.05;;;;;;;3.84;100.00;101594.63;7393531;19;20014;-55
2022/03/26 04:59:06;;;;;;;6.70;4.35;;;;;;;3.81;100.00;101590.66;7394559;19;20014;-55
2022/03/26 05:01:32;;;;;;;8.80;2.78;;;;;;;3.79;100.00;101589.47;7397324;19;20027;-55
2022/03/26 05:03:59;;;;;;;4.88;3.38;;;;;;;3.83;100.00;101596.56;7394997;19;20339;-55
2022/03/26 05:06:25;;;;;;;6.97;3.40;;;;;;;3.79;100.00;101592.22;7393117;19;20011;-55
2022/03/26 05:08:51;;;;;;;2.65;2.30;;;;;;;3.82;100.00;101591.47;7392935;19;20384;-55
2022/03/26 05:11:18;;;;;;;9.25;2.97;;;;;;;3.84;100.00;101591.84;7396344;19;20021;-55
2022/03/26 05:13:45;;;;;;;2.75;2.58;;;;;;;3.80;100.00;101591.84;7392419;19;20347;-55
2022/03/26 05:16:11;;;;;;;13.50;4.05;;;;;;;3.78;100.00;101591.47;7393023;19;20019;-56
2022/03/26 05:18:38;;;;;;;5.03;3.10;;;;;;;3.79;100.00;101594.97;7397106;19;20456;-55
2022/03/26 05:21:07;;;;;;;5.93;3.58;;;;;;;3.77;100.00;101600.09;7395404;19;20006;-56
2022/03/26 05:23:33;;;;;;;10.23;3.15;;;;;;;3.69;100.00;101612.25;7394459;19;20503;-55
2022/03/26 05:26:00;;;;;;;10.25;3.15;;;;;;;3.66;100.00;101607.53;7393536;19;20360;-55
2022/03/26 05:28:26;;;;;;;11.52;4.50;;;;;;;3.61;100.00;101610.66;7394369;19;20011;-54
2022/03/26 05:30:52;;;;;;;3.05;2.40;;;;;;;3.57;100.00;101609.84;7395082;19;20038;-54
2022/03/26 05:33:19;;;;;;;7.50;4.03;;;;;;;3.57;100.00;101610.63;7392787;19;20010;-55
2022/03/26 05:35:45;;;;;;;10.82;4.70;;;;;;;3.58;100.00;101611.41;7392079;19;20010;-54
2022/03/26 05:38:11;;;;;;;14.70;3.97;;;;;;;3.58;100.00;101622.44;7393641;19;20021;-55
2022/03/26 05:40:38;;;;;;;2.30;2.15;;;;;;;3.54;100.00;101621.63;7393915;19;20011;-55
2022/03/26 05:43:04;;;;;;;8.55;3.15;;;;;;;3.53;100.00;101620.81;7393631;19;20019;-55
2022/03/26 05:45:30;;;;;;;6.57;2.42;;;;;;;3.56;100.00;101613.75;7392231;19;20014;-56
2022/03/26 05:48:00;;;;;;;3.63;2.97;;;;;;;3.55;100.00;101628.72;7393064;19;20007;-55
2022/03/26 05:50:26;;;;;;;10.73;4.30;;;;;;;3.48;100.00;101623.97;7392289;19;20011;-55
2022/03/26 05:52:52;;;;;;;8.13;3.13;;;;;;;3.47;100.00;101627.06;7393288;19;20014;-55
2022/03/26 05:55:19;;;;;;;6.70;2.45;;;;;;;3.51;100.00;101633.44;7393069;19;20074;-55
2022/03/26 05:57:46;;;;;;;3.63;2.70;;;;;;;3.49;100.00;101633.00;7391778;19;20014;-55
2022/03/26 06:00:12;;;;;;;4.82;3.67;;;;;;;3.50;100.00;101640.09;7391848;19;20015;-55
2022/03/26 06:02:38;;;;;;;5.47;2.13;;;;;;;3.56;100.00;101636.59;7391938;19;20368;-56
2022/03/26 06:05:05;;;;;;;5.57;3.40;;;;;;;3.54;100.00;101641.69;7392047;19;20489;-56
2022/03/26 06:07:32;;;;;;;6.60;3.08;;;;;;;3.53;100.00;101642.09;7387766;19;20410;-55
2022/03/26 06:09:58;;;;;;;18.33;3.55;;;;;;;3.60;100.00;101647.63;7391330;19;20041;-55
2022/03/26 06:12:24;;;;;;;8.23;3.03;;;;;;;3.59;100.00;101640.53;7395610;19;20021;-55
2022/03/26 06:14:50;;;;;;;11.27;3.53;;;;;;;3.59;100.00;101646.06;7390892;19;20022;-55
2022/03/26 06:17:16;;;;;;;9.77;4.07;;;;;;;3.64;100.00;101648.44;7390631;19;20014;-55
2022/03/26 06:19:43;;;;;;;3.17;2.95;;;;;;;3.73;100.00;101646.13;7391581;19;20033;-55
2022/03/26 06:22:10;;;;;;;6.47;3.20;;;;;;;3.77;100.00;101642.22;7399934;19;20014;-54
2022/03/26 06:24:37;;;;;;;22.00;4.88;;;;;;;3.82;100.00;101649.31;7400656;19;20032;-55
2022/03/26 06:27:04;;;;;;;3.78;2.55;;;;;;;3.78;100.00;101654.03;7397601;19;20011;-55
2022/03/26 06:29:30;;;;;;;3.90;3.10;;;;;;;3.84;100.00;101658.00;7398961;19;20022;-55
2022/03/26 06:31:56;;;;;;;9.38;3.72;;;;;;;3.86;100.00;101655.66;7400405;19;20474;-55
2022/03/26 06:34:24;;;;;;;4.30;2.65;;;;;;;3.89;100.00;101660.41;7399554;19;20011;-56
2022/03/26 06:36:50;;;;;;;12.35;2.58;;;;;;;3.91;100.00;101657.25;7400018;19;20031;-55
2022/03/26 06:39:16;;;;;;;9.00;4.28;;;;;;;3.95;100.00;101655.28;7398808;19;20034;-55
2022/03/26 06:41:44;;;;;;;5.35;3.00;;;;;;;4.00;100.00;101665.97;7401558;19;20038;-55
2022/03/26 06:44:10;;;;;;;6.82;3.35;;;;;;;4.05;100.00;101657.31;7398495;19;20022;-55
2022/03/26 06:46:38;;;;;;;3.00;2.60;;;;;;;4.05;100.00;101669.13;7396121;19;20018;-55
2022/03/26 06:49:07;;;;;;;11.45;1.98;;;;;;;4.13;100.00;101668.00;7398595;19;20015;-55
2022/03/26 06:51:34;;;;;;;9.07;3.15;;;;;;;4.21;100.00;101664.09;7401633;19;20013;-55
2022/03/26 06:54:00;;;;;;;6.88;3.17;;;;;;;4.27;100.00;101665.28;7398584;19;20488;-55
2022/03/26 06:56:26;;;;;;;8.48;4.05;;;;;;;4.28;100.00;101672.38;7399119;19;20014;-54
2022/03/26 06:58:53;;;;;;;4.15;3.13;;;;;;;4.36;100.00;101667.66;7398056;19;20018;-54
2022/03/26 07:01:19;;;;;;;10.93;2.50;;;;;;;4.46;100.00;101673.22;7399717;19;20022;-55
2022/03/26 07:03:49;;;;;;;6.63;3.63;;;;;;;4.52;100.00;101665.38;7397054;19;20471;-55
2022/03/26 07:06:18;;;;;;;14.77;5.07;;;;;;;4.63;100.00;101679.97;7397821;19;20019;-55
2022/03/26 07:08:46;;;;;;;9.13;3.08;;;;;;;4.69;100.00;101680.38;7397669;19;20022;-55
2022/03/26 07:11:12;;;;;;;4.40;2.90;;;;;;;4.72;100.00;101680.38;7399491;19;20034;-55
2022/03/26 07:13:38;;;;;;;10.35;2.53;;;;;;;4.73;100.00;101676.44;7398270;19;20031;-54
2022/03/26 07:16:04;;;;;;;5.60;3.00;;;;;;;4.80;100.00;101681.19;7396649;19;20011;-55
2022/03/26 07:18:30;;;;;;;18.33;4.47;;;;;;;4.90;100.00;101683.97;7398236;19;20037;-55
2022/03/26 07:21:00;;;;;;;16.63;4.20;;;;;;;5.00;100.00;101674.13;7398388;19;20343;-55
2022/03/26 07:23:27;;;;;;;8.55;4.40;;;;;;;5.11;100.00;101680.44;7396130;19;20070;-55
2022/03/26 07:25:53;;;;;;;22.90;7.13;;;;;;;5.21;100.00;101674.13;7396635;19;20029;-56
2022/03/26 07:28:20;;;;;;;39.17;8.75;;;;;;;5.27;100.00;101686.34;7393669;19;20094;-55
2022/03/26 07:30:46;;;;;;;56.92;9.48;;;;;;;5.37;100.00;101680.06;7397618;19;20046;-55
2022/03/26 07:33:12;;;;;;;21.42;7.45;;;;;;;5.46;100.00;101685.19;7396729;19;20018;-55
2022/03/26 07:35:39;;;;;;;30.90;7.82;;;;;;;5.57;100.00;101683.16;7395537;19;20027;-55
2022/03/26 07:38:05;;;;;;;36.42;5.82;;;;;;;5.70;100.00;101684.34;7396790;19;20014;-55
2022/03/26 07:40:32;;;;;;;35.83;8.63;;;;;;;5.78;100.00;101691.44;7396461;19;20013;-55
2022/03/26 07:42:58;;;;;;;20.02;6.47;;;;;;;5.86;100.00;101682.75;7395641;19;20007;-55
2022/03/26 07:45:25;;;;;;;24.38;6.50;;;;;;;5.94;100.00;101684.31;7395945;19;20019;-55
2022/03/26 07:47:51;;;;;;;23.42;7.30;;;;;;;6.05;100.00;101674.00;7395762;19;20007;-55
2022/03/26 07:50:17;;;;;;;31.13;8.30;;;;;;;6.25;100.00;101681.84;7396621;19;20650;-55
2022/03/26 07:52:44;;;;;;;17.80;7.43;;;;;;;6.38;100.00;101686.53;7397381;19;20501;-55
2022/03/26 07:55:10;;;;;;;32.58;7.30;;;;;;;6.49;100.00;101686.47;7396596;19;20017;-55
2022/03/26 07:57:37;;;;;;;15.02;6.15;;;;;;;6.54;100.00;101691.59;7397125;19;20343;-55
2022/03/26 08:00:05;;;;;;;20.00;6.03;;;;;;;6.70;100.00;101681.59;7395406;19;20011;-55
2022/03/26 08:02:39;;;;;;;31.48;5.35;;;;;;;6.79;100.00;101678.38;7395751;19;20021;-55
2022/03/26 08:05:06;;;;;;;11.05;4.68;;;;;;;6.93;100.00;101681.06;7395708;19;20010;-55
2022/03/26 08:07:32;;;;;;;9.00;5.15;;;;;;;7.06;100.00;101679.38;7394748;19;20019;-55
2022/03/26 08:09:58;;;;;;;13.00;4.78;;;;;;;7.19;100.00;101680.47;7395674;19;20014;-55
2022/03/26 08:12:24;;;;;;;7.32;3.53;;;;;;;7.34;100.00;101678.38;7400553;19;20014;-55
2022/03/26 08:14:51;;;;;;;11.18;5.03;;;;;;;7.45;100.00;101681.84;7395670;19;20006;-55
2022/03/26 08:17:17;;;;;;;20.52;5.38;;;;;;;7.55;100.00;101680.97;7393880;19;20011;-55
2022/03/26 08:19:43;;;;;;;36.15;6.07;;;;;;;7.70;100.00;101679.63;7395662;19;20464;-55
2022/03/26 08:22:09;;;;;;;14.95;5.50;;;;;;;7.87;100.00;101684.19;7399062;19;20026;-55
2022/03/26 08:24:36;;;;;;;7.30;3.58;;;;;;;8.00;100.00;101679.69;7394171;19;20021;-55
2022/03/26 08:27:03;;;;;;;16.35;6.22;;;;;;;8.14;100.00;101678.75;7394523;19;20015;-56
2022/03/26 08:29:30;;;;;;;18.50;4.03;;;;;;;8.26;100.00;101681.00;7395751;19;20014;-55
2022/03/26 08:31:56;;;;;;;21.23;5.07;;;;;;;8.40;100.00;101680.84;7397501;19;20018;-55
2022/03/26 08:34:22;;;;;;;18.33;4.68;;;;;;;8.55;100.00;101685.00;7391791;19;20365;-55
2022/03/26 08:36:48;;;;;;;16.05;6.38;;;;;;;8.69;100.00;101676.47;7393691;19;20494;-55
2022/03/26 08:39:15;;;;;;;12.20;4.20;;;;;;;8.79;100.00;101675.50;7393372;19;20473;-55
2022/03/26 08:41:41;;;;;;;21.40;6.25;;;;;;;8.89;100.00;101680.13;7397006;19;20010;-55
2022/03/26 08:44:08;;;;;;;7.82;3.97;;;;;;;9.05;100.00;101674.72;7393448;19;20018;-55
2022/03/26 08:46:34;;;;;;;15.85;3.45;;;;;;;9.20;100.00;101682.84;7394021;19;20362;-55
2022/03/26 08:49:00;;;;;;;7.40;3.67;;;;;;;9.34;100.00;101677.03;7395378;19;20014;-55
2022/03/26 08:51:27;;;;;;;9.32;4.57;;;;;;;9.52;100.00;101678.31;7394829;19;20010;-55
2022/03/26 08:53:53;;;;;;;10.98;4.35;;;;;;;9.66;100.00;101672.50;7393266;19;20026;-55
2022/03/26 08:56:19;;;;;;;17.17;5.38;;;;;;;9.79;100.00;101675.44;7394129;19;20161;-55
2022/03/26 08:58:45;;;;;;;18.92;6.38;;;;;;;9.99;100.00;101678.25;7393843;19;20015;-55
2022/03/26 09:01:12;;;;;;;20.38;5.43;;;;;;;10.08;100.00;101670.13;7396099;19;20332;-55
2022/03/26 09:03:40;;;;;;;16.88;5.63;;;;;;;10.23;100.00;101674.22;7395709;19;20014;-55
2022/03/26 09:06:07;;;;;;;17.10;4.80;;;;;;;10.38;100.00;101672.69;7395658;19;20091;-55
2022/03/26 09:08:34;;;;;;;23.60;4.90;;;;;;;10.59;100.00;101672.22;7395732;19;20010;-55
2022/03/26 09:11:01;;;;;;;12.35;4.50;;;;;;;10.72;100.00;101670.34;7396436;19;20018;-55
2022/03/26 09:13:28;;;;;;;16.85;5.93;;;;;;;10.90;100.00;101684.69;7396104;19;20359;-55
2022/03/26 09:15:54;;;;;;;16.35;5.53;;;;;;;11.11;100.00;101678.59;7394024;19;20022;-55
2022/03/26 09:18:22;;;;;;;23.50;6.03;;;;;;;11.39;100.00;101674.34;7394607;19;20018;-56
2022/03/26 09:20:49;;;;;;;27.10;8.05;;;;;;;11.60;100.00;101670.22;7395880;19;20011;-55
2022/03/26 09:23:15;;;;;;;33.20;5.90;;;;;;;11.79;100.00;101669.31;7394361;19;20018;-55
2022/03/26 09:25:44;;;;;;;23.70;5.63;;;;;;;12.01;100.00;101671.09;7392942;19;20014;-55
2022/03/26 09:28:10;;;;;;;17.85;7.47;;;;;;;12.36;100.00;101668.53;7390934;19;20455;-54
2022/03/26 09:30:36;;;;;;;19.40;6.57;;;;;;;12.69;100.00;101669.91;7394104;19;20013;-54
2022/03/26 09:33:03;;;;;;;12.20;6.40;;;;;;;12.89;100.00;101667.66;7391856;19;20519;-48
2022/03/26 09:35:29;;;;;;;21.35;7.55;;;;;;;13.12;100.00;101669.38;7393556;19;20015;-48
2022/03/26 09:37:56;;;;;;;20.00;4.75;;;;;;;13.35;100.00;101667.00;7393542;19;20347;-48
2022/03/26 09:40:23;;;;;;;13.48;4.72;;;;;;;13.51;100.00;101669.63;7393545;19;20015;-48
2022/03/26 09:42:51;;;;;;;9.18;3.78;;;;;;;13.77;100.00;101663.97;7391229;19;20006;-48
2022/03/26 09:45:19;;;;;;;12.75;4.75;;;;;;;14.04;100.00;101673.38;7392914;19;20045;-48
2022/03/26 09:47:45;;;;;;;7.38;4.18;;;;;;;14.25;100.00;101671.81;7387350;19;20011;-48
2022/03/26 09:50:12;;;;;;;14.10;5.20;;;;;;;14.51;100.00;101664.06;7387687;19;20151;-48
2022/03/26 09:52:38;;;;;;;9.35;4.15;;;;;;;14.83;100.00;101669.22;7392861;19;20074;-48
2022/03/26 09:55:05;;;;;;;13.52;4.15;;;;;;;15.14;100.00;101665.13;7393369;19;20011;-48
2022/03/26 09:57:32;;;;;;;8.68;4.30;;;;;;;15.72;100.00;101658.72;7400057;19;20011;-48
2022/03/26 09:59:59;;;;;;;9.10;3.78;;;;;;;16.12;100.00;101662.13;7399941;19;20014;-48
2022/03/26 10:02:26;;;;;;;10.55;4.00;;;;;;;16.33;100.00;101663.19;7403166;19;20026;-48
2022/03/26 10:04:52;;;;;;;7.95;2.72;;;;;;;16.56;100.00;101654.88;7399536;19;20014;-48
2022/03/26 10:07:28;;;;;;;8.55;4.40;;;;;;;16.92;100.00;101661.63;7399119;19;20007;-48
2022/03/26 10:09:55;;;;;;;9.95;2.67;;;;;;;17.27;100.00;101657.06;7400487;19;20526;-48
2022/03/26 10:12:25;;;;;;;3.95;2.05;;;;;;;17.58;100.00;101653.94;7404226;19;20018;-48
2022/03/26 10:14:59;;;;;;;13.32;3.22;;;;;;;17.70;100.00;101656.47;7398581;19;20037;-48
2022/03/26 10:17:27;;;;;;;7.47;3.47;;;;;;;17.76;100.00;101648.16;7399130;19;20042;-48
2022/03/26 10:19:57;;;;;;;11.10;4.30;;;;;;;17.91;100.00;101654.59;7397215;19;20589;-48
2022/03/26 10:22:36;;;;;;;11.67;4.30;;;;;;;18.07;100.00;101652.09;7401100;19;20467;-48
2022/03/26 10:25:08;;;;;;;5.65;2.95;;;;;;;18.13;100.00;101661.44;7395317;19;20306;-48
2022/03/26 10:27:40;;;;;;;13.38;3.28;;;;;;;18.23;100.00;101652.91;7399528;19;20010;-48
2022/03/26 10:30:07;;;;;;;5.97;2.95;;;;;;;18.40;100.00;101653.97;7400365;19;20098;-48
2022/03/26 10:32:39;;;;;;;6.20;2.85;;;;;;;18.50;100.00;101649.81;7402344;19;20011;-48
2022/03/26 10:35:06;;;;;;;7.22;2.30;;;;;;;18.72;98.65;101650.19;7402081;19;20006;-48
2022/03/26 10:37:56;;;;;;;5.85;2.65;;;;;;;18.88;96.11;101647.63;7402171;19;20405;-48
2022/03/26 10:40:31;;;;;;;9.82;2.28;;;;;;;18.90;96.28;101645.09;7395582;19;20015;-48
2022/03/26 10:43:03;;;;;;;8.27;2.33;;;;;;;18.93;91.25;101648.97;7402136;19;20006;-48
2022/03/26 10:45:31;;;;;;;9.43;2.17;;;;;;;19.12;92.99;101649.53;7402529;19;20015;-48
2022/03/26 10:48:00;;;;;;;8.25;2.50;;;;;;;19.20;89.21;101636.53;7396637;19;20342;-48
2022/03/26 10:50:32;;;;;;;13.70;4.18;;;;;;;19.28;86.68;101638.44;7398986;19;20006;-48
2022/03/26 10:53:04;;;;;;;13.40;3.72;;;;;;;19.34;82.66;101650.63;7395643;19;20458;-48
2022/03/26 10:55:31;;;;;;;4.55;2.10;;;;;;;19.40;84.74;101648.69;7397680;19;20019;-48
2022/03/26 10:58:01;;;;;;;10.27;2.60;;;;;;;19.44;84.96;101642.81;7397386;19;20011;-48
2022/03/26 11:00:27;;;;;;;16.38;3.03;;;;;;;19.48;84.28;101644.16;7397647;19;20078;-48
2022/03/26 11:02:53;;;;;;;9.32;2.58;;;;;;;19.56;89.24;101641.66;7397453;19;20015;-49
2022/03/26 11:05:20;;;;;;;6.70;2.25;;;;;;;19.59;84.88;101643.50;7397814;19;20015;-48
2022/03/26 11:07:48;;;;;;;7.07;2.83;;;;;;;19.70;83.08;101640.03;7395253;19;20033;-48
2022/03/26 11:10:14;;;;;;;5.97;3.60;;;;;;;19.87;79.78;101635.34;7396345;19;20066;-48
2022/03/26 11:12:45;;;;;;;6.28;2.70;;;;;;;19.99;77.41;101626.50;7397775;19;20349;-48
2022/03/26 11:15:18;;;;;;;26.15;6.63;;;;;;;20.12;78.71;101635.38;7397695;19;20021;-49
2022/03/26 11:18:05;;;;;;;7.10;3.53;;;;;;;20.15;77.81;101633.59;7398099;19;20467;-49
2022/03/26 11:20:54;;;;;;;8.88;2.65;;;;;;;20.15;77.35;101644.91;7398165;19;20459;-48
2022/03/26 11:23:29;;;;;;;9.02;3.75;;;;;;;20.21;78.81;101642.94;7398208;19;20051;-49
2022/03/26 11:26:09;;;;;;;16.95;2.15;;;;;;;20.21;78.48;101634.47;7397556;19;20018;-49
2022/03/26 11:28:51;;;;;;;16.23;4.28;;;;;;;20.09;76.43;101638.44;7395842;19;20006;-49
2022/03/26 11:31:28;;;;;;;8.40;3.55;;;;;;;20.16;73.97;101635.16;7397398;19;20015;-49
2022/03/26 11:34:05;;;;;;;22.90;3.22;;;;;;;20.13;75.76;101636.94;7397637;19;20034;-49
2022/03/26 11:36:32;;;;;;;14.18;2.75;;;;;;;20.28;75.22;101636.84;7397000;19;20017;-49